Página principal
METAR-TAF:

METAR-TAF

Aeroportos :

Georgetown, Ascensão

latitude: 07-58S, longitude: 014-24W, altura: 86 m

METAR: em falta

Hora: 01:27 (01:27 UTC)

Previsão

O boletim foi feito há 20 horas e 57 minutos, às 04:30 UTC
Previsão válida de 14 às 06 UTC a 14 às 24 UTC
Vento 14 kt de sudeste
Visibilidade 10 km ou mais
Poucas nuvensa uma altura de 2200 ft
Nuvens fragmentadasa uma altura de 2800 ft
Probabilidade 40% :
Temporariamente
de 14 às 06 UTC a 14 às 10 UTC
Visibilidade: 6000 m
Nuvens dispersasa uma altura de 2000 ft
aguaceiros fracos de chuva

TAF: FHAW 140430Z 1406/1424 13014KT 9999 FEW022 BKN028 PROB40 TEMPO 1406/1410 6000 -SHRA SCT020

Observações e previsões do tempo de mais de 4000 aeroportos (mensagens METAR e TAF).

As estações disponíveis são os pontos amarelos e vermelhos sobre o mapa.

Mova o rato sobre o mapa para ver o nome da estação.

Depois clique no ponto para visualizar as observações e previsões meteorológicas.

Para alterar o mapa : clique nos botões verdes com uma cruz preta para aumentar o zoom; no botão verde com uma pitada de zoom; ou nas setas verdes para mapas adjacentes.


METAR-TAF: